Weather at Baraboo Wisconsin Dells Airport

Public forecast

Using degrees Fahrenheit for public forecast. Weather courtesy of forecast.io.

Current aviation weather report (METAR) for Baraboo Wisconsin Dells Airport

Retrieved 2021/04/23 10:35 UTC (0 seconds ago):

KDLL 231035Z AUTO 00000KT 10SM SCT100 05/M03 A2997 RMK AO2 T00521034

Closest aviation forecast (TAF) to Baraboo Wisconsin Dells Airport

Closest forecast is Dane County Regional Truax Field, 29.8 nm (55.1 km) SE. Retrieved 2021/04/23 06:21 UTC (4 hours ago):

TAF KMSN 230520Z 2306/2406 23007KT P6SM SCT120 FM231600 20012KT P6SM BKN090 FM240000 19007KT P6SM BKN035 FM240500 19003KT P6SM BKN030